createdAt,value
2023-02-16T00:01:53.805Z,5.35
2023-02-16T00:04:26.485Z,5.16
2023-02-16T00:06:53.940Z,5.36
2023-02-16T00:09:21.656Z,5.29
2023-02-16T00:12:07.194Z,5.25
2023-02-16T00:14:35.931Z,5.28
2023-02-16T00:17:03.266Z,5.27
2023-02-16T00:19:31.145Z,5.15
2023-02-16T00:21:59.108Z,5.02
2023-02-16T00:24:27.143Z,4.97
2023-02-16T00:26:53.927Z,4.85
2023-02-16T00:29:27.213Z,4.70
2023-02-16T00:31:54.957Z,4.42
2023-02-16T00:34:33.178Z,4.47
2023-02-16T00:37:03.679Z,4.55
2023-02-16T00:39:30.283Z,4.46
2023-02-16T00:42:01.149Z,4.53
2023-02-16T00:44:39.179Z,4.80
2023-02-16T00:47:42.923Z,4.81
2023-02-16T00:50:18.203Z,4.80
2023-02-16T00:52:48.766Z,4.70
2023-02-16T00:55:18.035Z,4.70
2023-02-16T00:57:49.847Z,4.79
2023-02-16T01:00:30.085Z,4.68
2023-02-16T01:02:59.957Z,4.76
2023-02-16T01:05:26.498Z,4.75
2023-02-16T01:08:11.634Z,4.64
2023-02-16T01:10:58.512Z,4.66
2023-02-16T01:13:28.417Z,4.79
2023-02-16T01:15:55.589Z,4.77
2023-02-16T01:18:22.267Z,4.70
2023-02-16T01:20:49.777Z,4.66
2023-02-16T01:23:16.179Z,4.67
2023-02-16T01:25:42.764Z,4.46
2023-02-16T01:28:22.158Z,4.53
2023-02-16T01:30:50.057Z,4.45
2023-02-16T01:33:16.591Z,4.71
2023-02-16T01:35:43.639Z,4.56
2023-02-16T01:38:22.183Z,4.70
2023-02-16T01:40:56.192Z,4.80
2023-02-16T01:43:26.009Z,4.65
2023-02-16T01:46:05.692Z,4.74
2023-02-16T01:48:32.754Z,4.86
2023-02-16T01:51:15.045Z,4.64
2023-02-16T01:53:51.267Z,4.90
2023-02-16T01:56:39.395Z,4.96
2023-02-16T01:59:23.763Z,4.87
2023-02-16T02:02:04.005Z,4.86
2023-02-16T02:05:01.238Z,4.96
2023-02-16T02:07:35.423Z,5.07
2023-02-16T02:10:18.797Z,4.98
2023-02-16T02:12:55.622Z,5.11
2023-02-16T02:15:26.501Z,4.98
2023-02-16T02:17:52.838Z,5.00
2023-02-16T02:21:01.275Z,5.02
2023-02-16T02:23:57.868Z,5.12
2023-02-16T02:26:53.160Z,5.04
2023-02-16T02:29:57.222Z,5.13
2023-02-16T02:32:50.041Z,5.06
2023-02-16T02:35:41.404Z,4.97
2023-02-16T02:38:26.323Z,4.83
2023-02-16T02:41:18.502Z,4.94
2023-02-16T02:43:57.022Z,4.86
2023-02-16T02:46:32.350Z,4.86
2023-02-16T02:48:58.844Z,4.68
2023-02-16T02:51:28.426Z,4.76
2023-02-16T02:54:25.266Z,4.85
2023-02-16T02:57:38.007Z,4.81
2023-02-16T03:00:28.918Z,4.80
2023-02-16T03:03:01.927Z,4.67
2023-02-16T03:05:31.536Z,4.66
2023-02-16T03:08:14.236Z,4.95
2023-02-16T03:11:30.902Z,4.90
2023-02-16T03:14:01.666Z,4.84
2023-02-16T03:16:42.103Z,4.87
2023-02-16T03:19:29.662Z,4.83
2023-02-16T03:22:17.071Z,4.80
2023-02-16T03:25:02.296Z,4.79
2023-02-16T03:27:51.625Z,4.78
2023-02-16T03:30:19.316Z,4.76
2023-02-16T03:32:46.514Z,4.78
2023-02-16T03:35:13.353Z,4.95
2023-02-16T03:37:41.338Z,4.88
2023-02-16T03:40:29.284Z,4.97
2023-02-16T03:42:58.118Z,5.09
2023-02-16T03:45:25.415Z,5.14
2023-02-16T03:47:51.970Z,5.22
2023-02-16T03:50:18.328Z,5.27
2023-02-16T03:52:44.720Z,5.27
2023-02-16T03:55:11.187Z,5.33
2023-02-16T03:57:37.550Z,5.32
2023-02-16T04:00:04.352Z,5.36
2023-02-16T04:02:30.794Z,5.36
2023-02-16T04:04:58.172Z,5.36
2023-02-16T04:07:25.000Z,5.40
2023-02-16T04:09:51.375Z,5.46
2023-02-16T04:12:46.617Z,5.49
2023-02-16T04:15:16.437Z,5.52
2023-02-16T04:17:43.233Z,5.56
2023-02-16T04:20:13.038Z,5.56
2023-02-16T04:22:39.847Z,5.48
2023-02-16T04:25:06.839Z,5.55
2023-02-16T04:27:33.404Z,5.60
2023-02-16T04:29:59.950Z,5.65
2023-02-16T04:32:26.343Z,5.64
2023-02-16T04:34:52.784Z,5.61
2023-02-16T04:37:19.189Z,5.68
2023-02-16T04:39:45.552Z,5.66
2023-02-16T04:42:11.941Z,5.68
2023-02-16T04:44:38.330Z,5.69
2023-02-16T04:47:05.005Z,5.70
2023-02-16T04:49:31.566Z,5.73
2023-02-16T04:51:57.985Z,5.83
2023-02-16T04:54:24.354Z,5.82
2023-02-16T04:56:50.730Z,5.78
2023-02-16T04:59:17.140Z,5.80
2023-02-16T05:01:43.724Z,5.70
2023-02-16T05:04:10.568Z,5.89
2023-02-16T05:06:38.437Z,5.84
2023-02-16T05:09:06.109Z,5.93
2023-02-16T05:11:51.311Z,5.90
2023-02-16T05:14:39.521Z,5.93
2023-02-16T05:17:06.106Z,5.92
2023-02-16T05:19:32.496Z,5.94
2023-02-16T05:21:58.997Z,5.92
2023-02-16T05:24:27.729Z,5.96
2023-02-16T05:26:54.867Z,5.96
2023-02-16T05:29:21.336Z,5.96
2023-02-16T05:31:48.279Z,5.95
2023-02-16T05:34:14.811Z,5.98
2023-02-16T05:36:41.182Z,5.99
2023-02-16T05:39:07.638Z,5.98
2023-02-16T05:41:34.134Z,5.91
2023-02-16T05:44:02.465Z,6.01
2023-02-16T05:46:32.535Z,5.99
2023-02-16T05:49:00.364Z,5.95
2023-02-16T05:51:27.232Z,5.87
2023-02-16T05:53:53.889Z,5.98
2023-02-16T05:56:21.421Z,5.83
2023-02-16T05:58:47.911Z,6.04
2023-02-16T06:01:15.132Z,6.04
2023-02-16T06:03:41.869Z,6.07
2023-02-16T06:06:09.069Z,6.10
2023-02-16T06:08:36.641Z,6.12
2023-02-16T06:11:06.947Z,6.11
2023-02-16T06:13:34.235Z,6.18
2023-02-16T06:16:00.677Z,6.16
2023-02-16T06:18:27.182Z,6.08
2023-02-16T06:20:56.588Z,6.09
2023-02-16T06:23:23.007Z,6.12
2023-02-16T06:25:51.541Z,6.15
2023-02-16T06:28:17.893Z,6.10
2023-02-16T06:30:44.329Z,6.13
2023-02-16T06:33:10.772Z,6.10
2023-02-16T06:35:37.134Z,6.11
2023-02-16T06:38:03.496Z,6.05
2023-02-16T06:40:29.924Z,6.08
2023-02-16T06:42:56.311Z,6.13
2023-02-16T06:45:22.707Z,6.14
2023-02-16T06:47:49.061Z,6.15
2023-02-16T06:50:15.496Z,6.18
2023-02-16T06:52:41.850Z,6.25
2023-02-16T06:55:08.618Z,6.11
2023-02-16T06:57:34.966Z,6.21
2023-02-16T07:00:01.333Z,6.26
2023-02-16T07:02:27.668Z,6.01
2023-02-16T07:04:54.570Z,6.19
2023-02-16T07:07:21.159Z,6.16
2023-02-16T07:09:47.718Z,6.30
2023-02-16T07:12:14.095Z,6.17
2023-02-16T07:14:41.603Z,6.29
2023-02-16T07:17:08.858Z,6.27
2023-02-16T07:19:35.212Z,6.30
2023-02-16T07:22:02.363Z,6.26
2023-02-16T07:24:28.822Z,6.17
2023-02-16T07:26:55.381Z,6.25
2023-02-16T07:29:22.285Z,6.32
2023-02-16T07:31:48.893Z,6.19
2023-02-16T07:34:15.365Z,6.33
2023-02-16T07:36:42.180Z,6.33
2023-02-16T07:39:08.555Z,6.39
2023-02-16T07:41:34.936Z,6.33
2023-02-16T07:44:01.327Z,6.42
2023-02-16T07:46:27.852Z,6.39
2023-02-16T07:48:54.214Z,6.37
2023-02-16T07:51:22.602Z,6.37
2023-02-16T07:53:49.051Z,6.50
2023-02-16T07:56:20.684Z,6.47
2023-02-16T07:58:47.384Z,6.60
2023-02-16T08:01:15.976Z,6.63
2023-02-16T08:03:42.431Z,6.65
2023-02-16T08:06:09.433Z,6.72
2023-02-16T08:08:37.173Z,6.61
2023-02-16T08:11:15.337Z,6.85
2023-02-16T08:13:42.388Z,6.69
2023-02-16T08:16:11.084Z,6.91
2023-02-16T08:18:38.803Z,6.94
2023-02-16T08:21:13.942Z,7.01
2023-02-16T08:23:47.417Z,6.95
2023-02-16T08:26:17.307Z,7.09
2023-02-16T08:28:47.832Z,7.11
2023-02-16T08:31:16.943Z,7.12
2023-02-16T08:33:43.944Z,7.15
2023-02-16T08:36:21.127Z,7.04
2023-02-16T08:38:50.803Z,7.07
2023-02-16T08:41:19.543Z,6.99
2023-02-16T08:43:47.049Z,7.02
2023-02-16T08:46:14.190Z,7.06
2023-02-16T08:48:40.847Z,7.11
2023-02-16T08:51:07.989Z,7.17
2023-02-16T08:53:34.970Z,7.09
2023-02-16T08:56:04.570Z,7.18
2023-02-16T08:58:31.659Z,7.15
2023-02-16T09:00:58.150Z,7.02
2023-02-16T09:03:25.102Z,7.10
2023-02-16T09:05:53.095Z,7.04
2023-02-16T09:08:19.594Z,6.93
2023-02-16T09:10:45.978Z,7.11
2023-02-16T09:13:16.032Z,7.08
2023-02-16T09:15:43.353Z,7.14
2023-02-16T09:18:12.447Z,7.19
2023-02-16T09:20:41.179Z,7.13
2023-02-16T09:23:10.602Z,7.14
2023-02-16T09:25:38.485Z,7.11
2023-02-16T09:28:06.373Z,7.14
2023-02-16T09:30:34.528Z,7.19
2023-02-16T09:33:02.106Z,7.26
2023-02-16T09:35:28.550Z,7.22
2023-02-16T09:37:54.984Z,7.32
2023-02-16T09:40:21.816Z,7.18
2023-02-16T09:43:09.805Z,7.38
2023-02-16T09:45:58.102Z,7.43
2023-02-16T09:48:35.493Z,7.38
2023-02-16T09:51:05.286Z,7.42
2023-02-16T09:53:41.582Z,7.19
2023-02-16T09:56:22.566Z,7.27
2023-02-16T09:58:56.128Z,7.14
2023-02-16T10:01:37.868Z,7.34
2023-02-16T10:04:21.564Z,7.38
2023-02-16T10:07:06.097Z,7.34
2023-02-16T10:09:33.767Z,7.24
2023-02-16T10:12:02.791Z,7.40
2023-02-16T10:14:49.256Z,7.38
2023-02-16T10:17:33.863Z,7.43
2023-02-16T10:20:40.706Z,7.47
2023-02-16T10:23:32.920Z,7.52
2023-02-16T10:26:14.217Z,7.57
2023-02-16T10:28:46.499Z,7.83
2023-02-16T10:31:20.447Z,7.88
2023-02-16T10:34:05.429Z,8.05
2023-02-16T10:37:00.448Z,8.33
2023-02-16T10:39:43.356Z,8.42
2023-02-16T10:42:41.459Z,8.43
2023-02-16T10:45:27.382Z,8.46
2023-02-16T10:47:54.381Z,8.45
2023-02-16T10:50:29.766Z,8.22
2023-02-16T10:53:01.311Z,8.25
2023-02-16T10:55:27.772Z,8.22
2023-02-16T10:57:58.165Z,8.27
2023-02-16T11:00:48.335Z,8.13
2023-02-16T11:03:15.525Z,8.17
2023-02-16T11:05:42.307Z,8.09
2023-02-16T11:08:14.085Z,8.13
2023-02-16T11:10:46.952Z,8.10
2023-02-16T11:13:26.887Z,7.96
2023-02-16T11:15:56.251Z,7.98
2023-02-16T11:18:33.503Z,7.85
2023-02-16T11:21:00.835Z,7.79
2023-02-16T11:23:39.617Z,7.84
2023-02-16T11:26:11.792Z,7.96
2023-02-16T11:28:43.988Z,7.99
2023-02-16T11:31:36.709Z,8.01
2023-02-16T11:34:23.350Z,8.05
2023-02-16T11:36:49.788Z,8.03
2023-02-16T11:39:23.015Z,7.94
2023-02-16T11:42:06.028Z,7.92
2023-02-16T11:44:35.668Z,7.99
2023-02-16T11:47:08.620Z,7.84
2023-02-16T11:49:38.638Z,8.03
2023-02-16T11:52:23.149Z,8.10
2023-02-16T11:54:56.006Z,8.15
2023-02-16T11:57:42.659Z,8.23
2023-02-16T12:00:22.153Z,8.30
2023-02-16T12:03:25.038Z,8.43
2023-02-16T12:06:16.180Z,8.42
2023-02-16T12:08:45.356Z,8.51
2023-02-16T12:11:43.388Z,8.51
2023-02-16T12:14:23.837Z,8.66
2023-02-16T12:16:57.645Z,8.85
2023-02-16T12:19:28.148Z,8.87
2023-02-16T12:22:32.416Z,8.87
2023-02-16T12:25:19.782Z,9.08
2023-02-16T12:28:05.797Z,9.17
2023-02-16T12:30:55.179Z,9.33
2023-02-16T12:33:40.478Z,9.41
2023-02-16T12:36:27.302Z,9.56
2023-02-16T12:39:05.965Z,9.62
2023-02-16T12:41:51.627Z,9.48
2023-02-16T12:44:30.781Z,9.44
2023-02-16T12:47:04.526Z,9.42
2023-02-16T12:49:46.106Z,9.57
2023-02-16T12:52:40.227Z,9.61
2023-02-16T12:55:11.708Z,9.80
2023-02-16T12:57:46.247Z,10.04
2023-02-16T13:00:33.182Z,10.09
2023-02-16T13:03:17.061Z,10.23
2023-02-16T13:05:49.017Z,10.35
2023-02-16T13:08:30.123Z,10.66
2023-02-16T13:11:04.893Z,10.51
2023-02-16T13:13:34.355Z,10.51
2023-02-16T13:16:28.725Z,10.46
2023-02-16T13:18:57.127Z,10.97
2023-02-16T13:21:51.621Z,11.07
2023-02-16T13:24:30.784Z,10.83
2023-02-16T13:27:18.311Z,11.15
2023-02-16T13:29:55.177Z,11.26
2023-02-16T13:32:40.361Z,11.18
2023-02-16T13:35:29.983Z,11.09
2023-02-16T13:38:05.166Z,11.05
2023-02-16T13:40:45.324Z,10.94
2023-02-16T13:43:30.009Z,11.05
2023-02-16T13:45:58.267Z,10.94
2023-02-16T13:48:38.237Z,11.01
2023-02-16T13:51:11.837Z,10.86
2023-02-16T13:53:41.746Z,11.03
2023-02-16T13:56:22.196Z,11.11
2023-02-16T13:58:51.259Z,11.21
2023-02-16T14:01:37.726Z,11.04
2023-02-16T14:04:13.399Z,10.96
2023-02-16T14:06:42.636Z,11.02
2023-02-16T14:09:15.293Z,11.16
2023-02-16T14:11:50.753Z,11.00
2023-02-16T14:14:31.568Z,10.99
2023-02-16T14:17:32.276Z,11.01
2023-02-16T14:20:13.744Z,10.80
2023-02-16T14:22:43.083Z,10.69
2023-02-16T14:25:27.092Z,10.68
2023-02-16T14:27:59.394Z,10.63
2023-02-16T14:30:36.970Z,10.75
2023-02-16T14:33:12.447Z,10.67
2023-02-16T14:35:42.046Z,10.52
2023-02-16T14:38:20.760Z,10.73
2023-02-16T14:41:02.025Z,10.78
2023-02-16T14:43:43.769Z,10.80
2023-02-16T14:46:30.422Z,10.69
2023-02-16T14:49:13.000Z,10.50
2023-02-16T14:52:00.153Z,10.43
2023-02-16T14:54:41.836Z,10.41
2023-02-16T14:57:16.021Z,10.42
2023-02-16T15:00:19.823Z,10.46
2023-02-16T15:03:15.713Z,10.42
2023-02-16T15:05:43.137Z,10.15
2023-02-16T15:08:16.830Z,10.20
2023-02-16T15:10:47.544Z,10.05
2023-02-16T15:13:26.537Z,10.01
2023-02-16T15:15:56.672Z,9.84
2023-02-16T15:18:27.672Z,9.80
2023-02-16T15:20:58.430Z,9.75
2023-02-16T15:23:28.372Z,9.71
2023-02-16T15:26:01.177Z,9.77
2023-02-16T15:28:30.699Z,9.76
2023-02-16T15:31:01.103Z,9.62
2023-02-16T15:33:36.335Z,9.54
2023-02-16T15:36:18.759Z,9.54
2023-02-16T15:38:51.125Z,9.52
2023-02-16T15:41:26.744Z,9.52
2023-02-16T15:43:53.548Z,9.66
2023-02-16T15:46:37.640Z,9.60
2023-02-16T15:49:11.177Z,9.53
2023-02-16T15:51:38.294Z,9.44
2023-02-16T15:54:13.222Z,9.36
2023-02-16T15:56:51.529Z,9.39
2023-02-16T15:59:20.882Z,9.37
2023-02-16T16:01:47.857Z,9.41
2023-02-16T16:04:21.293Z,9.33
2023-02-16T16:06:49.997Z,9.27
2023-02-16T16:09:24.126Z,9.30
2023-02-16T16:11:51.812Z,9.27
2023-02-16T16:14:18.853Z,9.22
2023-02-16T16:16:46.069Z,9.17
2023-02-16T16:19:19.005Z,9.06
2023-02-16T16:21:47.870Z,9.12
2023-02-16T16:24:28.167Z,9.02
2023-02-16T16:26:57.737Z,9.06
2023-02-16T16:29:45.497Z,9.07
2023-02-16T16:32:22.000Z,9.00
2023-02-16T16:34:49.562Z,9.06
2023-02-16T16:37:33.060Z,8.93
2023-02-16T16:40:01.816Z,8.99
2023-02-16T16:42:28.603Z,8.95
2023-02-16T16:44:59.405Z,8.98
2023-02-16T16:47:30.386Z,8.91
2023-02-16T16:50:05.703Z,8.85
2023-02-16T16:52:42.726Z,8.90
2023-02-16T16:55:21.570Z,8.88
2023-02-16T16:57:50.177Z,8.92
2023-02-16T17:00:17.947Z,8.93
2023-02-16T17:02:44.985Z,8.99
2023-02-16T17:05:11.825Z,8.88
2023-02-16T17:07:38.797Z,8.74
2023-02-16T17:10:05.699Z,8.89
2023-02-16T17:12:32.344Z,8.91
2023-02-16T17:15:00.582Z,8.89
2023-02-16T17:17:27.048Z,9.04
2023-02-16T17:19:53.530Z,9.01
2023-02-16T17:22:20.958Z,9.06
2023-02-16T17:24:47.516Z,9.03
2023-02-16T17:27:14.197Z,9.05
2023-02-16T17:29:42.919Z,9.08
2023-02-16T17:32:09.684Z,8.96
2023-02-16T17:34:36.195Z,9.03
2023-02-16T17:37:07.436Z,8.98
2023-02-16T17:39:35.009Z,8.94
2023-02-16T17:42:01.892Z,8.89
2023-02-16T17:44:28.249Z,8.95
2023-02-16T17:46:54.636Z,8.99
2023-02-16T17:49:21.044Z,8.95
2023-02-16T17:51:47.389Z,8.88
2023-02-16T17:54:13.844Z,8.79
2023-02-16T17:56:40.293Z,8.79
2023-02-16T17:59:06.719Z,8.79
2023-02-16T18:01:34.787Z,8.64
2023-02-16T18:04:03.194Z,8.73
2023-02-16T18:06:30.548Z,8.70
2023-02-16T18:08:56.931Z,8.80
2023-02-16T18:11:23.295Z,8.83
2023-02-16T18:13:49.784Z,8.77
2023-02-16T18:16:18.832Z,8.81
2023-02-16T18:18:45.698Z,8.76
2023-02-16T18:21:12.077Z,8.75
2023-02-16T18:23:38.772Z,8.78
2023-02-16T18:26:06.198Z,8.79
2023-02-16T18:28:34.769Z,8.71
2023-02-16T18:31:01.840Z,8.82
2023-02-16T18:33:28.273Z,8.77
2023-02-16T18:35:57.427Z,8.80
2023-02-16T18:38:24.768Z,8.77
2023-02-16T18:40:53.268Z,8.68
2023-02-16T18:43:21.063Z,8.79
2023-02-16T18:45:47.849Z,8.81
2023-02-16T18:48:14.444Z,8.67
2023-02-16T18:50:40.820Z,8.76
2023-02-16T18:53:07.214Z,8.77
2023-02-16T18:55:33.668Z,8.78
2023-02-16T18:58:01.252Z,8.30
2023-02-16T19:00:28.179Z,8.54
2023-02-16T19:02:55.363Z,8.81
2023-02-16T19:05:22.417Z,8.81
2023-02-16T19:07:49.590Z,8.81
2023-02-16T19:10:16.627Z,8.85
2023-02-16T19:12:43.036Z,8.87
2023-02-16T19:15:09.893Z,8.88
2023-02-16T19:17:38.512Z,8.82
2023-02-16T19:20:09.624Z,8.88
2023-02-16T19:22:37.214Z,8.88
2023-02-16T19:25:05.737Z,8.91
2023-02-16T19:27:32.242Z,8.82
2023-02-16T19:29:58.711Z,8.90
2023-02-16T19:32:25.160Z,8.91
2023-02-16T19:34:51.609Z,8.93
2023-02-16T19:37:18.304Z,8.92
2023-02-16T19:39:44.807Z,8.98
2023-02-16T19:42:11.257Z,8.92
2023-02-16T19:44:39.048Z,8.99
2023-02-16T19:47:05.433Z,8.99
2023-02-16T19:49:31.849Z,9.03
2023-02-16T19:52:02.296Z,9.07
2023-02-16T19:54:32.359Z,9.00
2023-02-16T19:56:58.764Z,9.05
2023-02-16T19:59:25.203Z,9.02
2023-02-16T20:01:51.727Z,9.07
2023-02-16T20:04:18.228Z,9.08
2023-02-16T20:06:45.215Z,9.09
2023-02-16T20:09:17.504Z,9.11
2023-02-16T20:11:43.911Z,9.09
2023-02-16T20:14:10.881Z,9.11
2023-02-16T20:16:37.391Z,9.20
2023-02-16T20:19:03.902Z,9.13
2023-02-16T20:21:30.898Z,9.13
2023-02-16T20:24:02.330Z,9.11
2023-02-16T20:26:34.166Z,9.13
2023-02-16T20:29:01.375Z,9.14
2023-02-16T20:31:33.277Z,9.19
2023-02-16T20:34:00.772Z,9.15
2023-02-16T20:36:28.033Z,9.15
2023-02-16T20:38:54.601Z,9.03
2023-02-16T20:41:22.153Z,9.19
2023-02-16T20:43:48.598Z,9.22
2023-02-16T20:46:15.488Z,9.21
2023-02-16T20:48:42.514Z,9.20
2023-02-16T20:51:10.601Z,9.22
2023-02-16T20:53:37.088Z,9.20
2023-02-16T20:56:16.619Z,9.25
2023-02-16T20:58:44.486Z,9.24
2023-02-16T21:01:23.422Z,9.28
2023-02-16T21:03:50.881Z,9.14
2023-02-16T21:06:18.211Z,9.27
2023-02-16T21:08:44.701Z,9.31
2023-02-16T21:11:11.168Z,9.31
2023-02-16T21:13:38.850Z,9.38
2023-02-16T21:16:07.269Z,9.27
2023-02-16T21:18:34.842Z,9.38
2023-02-16T21:21:02.633Z,9.37
2023-02-16T21:23:29.741Z,9.45
2023-02-16T21:26:01.534Z,9.49
2023-02-16T21:28:28.760Z,9.34
2023-02-16T21:30:56.272Z,9.51
2023-02-16T21:33:22.868Z,9.48
2023-02-16T21:35:49.248Z,9.57
2023-02-16T21:38:17.604Z,9.60
2023-02-16T21:41:02.645Z,9.57
2023-02-16T21:43:29.088Z,9.53
2023-02-16T21:46:01.761Z,9.52
2023-02-16T21:48:50.008Z,9.60
2023-02-16T21:51:24.146Z,9.61
2023-02-16T21:53:51.652Z,9.61
2023-02-16T21:56:39.317Z,9.58
2023-02-16T21:59:09.031Z,9.42
2023-02-16T22:01:42.544Z,9.59
2023-02-16T22:04:11.883Z,9.63
2023-02-16T22:06:41.293Z,9.59
2023-02-16T22:09:10.961Z,9.62
2023-02-16T22:11:37.851Z,9.64
2023-02-16T22:14:04.314Z,9.61
2023-02-16T22:16:33.308Z,9.65
2023-02-16T22:19:02.933Z,9.65
2023-02-16T22:21:30.552Z,9.65
2023-02-16T22:23:57.966Z,9.67
2023-02-16T22:26:26.857Z,9.60
2023-02-16T22:28:54.205Z,9.69
2023-02-16T22:31:22.889Z,9.70
2023-02-16T22:33:58.239Z,9.68
2023-02-16T22:36:25.297Z,9.66
2023-02-16T22:38:52.559Z,9.45
2023-02-16T22:41:19.262Z,9.51
2023-02-16T22:43:45.699Z,9.52
2023-02-16T22:46:16.916Z,9.68
2023-02-16T22:48:44.192Z,9.70
2023-02-16T22:51:15.129Z,9.69
2023-02-16T22:53:41.610Z,9.69
2023-02-16T22:56:11.800Z,9.72
2023-02-16T22:58:38.198Z,9.70
2023-02-16T23:01:11.299Z,9.48
2023-02-16T23:03:37.712Z,9.67
2023-02-16T23:06:18.350Z,9.69
2023-02-16T23:08:45.668Z,9.67
2023-02-16T23:11:12.898Z,9.67
2023-02-16T23:13:39.292Z,9.71
2023-02-16T23:16:12.231Z,9.74
2023-02-16T23:18:38.680Z,9.72
2023-02-16T23:21:10.534Z,9.75
2023-02-16T23:23:37.021Z,9.75
2023-02-16T23:26:06.240Z,9.75
2023-02-16T23:28:33.820Z,9.77
2023-02-16T23:31:00.419Z,9.78
2023-02-16T23:33:26.819Z,9.80
2023-02-16T23:35:54.074Z,9.71
2023-02-16T23:38:20.831Z,9.73
2023-02-16T23:41:02.960Z,9.73
2023-02-16T23:43:30.278Z,9.74
2023-02-16T23:45:56.847Z,9.73
2023-02-16T23:48:24.046Z,9.69
2023-02-16T23:50:51.903Z,9.72
2023-02-16T23:53:19.326Z,9.59
2023-02-16T23:55:56.085Z,9.53
2023-02-16T23:58:22.452Z,9.76
